Time;durP1;ratioP1;P1;durP2;ratioP2;P2;SDS_P1;SDS_P2;PMS_P1;PMS_P2;Temp;Humidity;BMP_temperature;BMP_pressure;BME280_temperature;BME280_humidity;BME280_pressure;Samples;Min_cycle;Max_cycle;Signal;HPM_P1;HPM_P2
2022/01/09 00:00:15;;;;;;;5.57;4.47;;;-1.00;99.90;;;;;;5092410;28;20035;-57
2022/01/09 00:02:40;;;;;;;6.28;5.10;;;-0.90;99.90;;;;;;5092268;28;20043;-56
2022/01/09 00:05:07;;;;;;;6.80;4.22;;;-0.80;99.90;;;;;;5092177;28;20058;-55
2022/01/09 00:07:33;;;;;;;4.38;3.97;;;-0.80;99.90;;;;;;5091907;28;20035;-57
2022/01/09 00:09:59;;;;;;;4.32;3.92;;;-0.80;99.90;;;;;;5092487;28;20403;-56
2022/01/09 00:12:24;;;;;;;4.38;4.07;;;-0.80;99.90;;;;;;5092061;28;20035;-55
2022/01/09 00:14:51;;;;;;;4.18;3.63;;;-0.90;99.90;;;;;;5092400;28;20078;-55
2022/01/09 00:17:18;;;;;;;6.40;4.18;;;-0.90;99.90;;;;;;5092119;28;20367;-54
2022/01/09 00:19:43;;;;;;;5.80;4.28;;;-1.00;99.90;;;;;;5092002;28;20043;-56
2022/01/09 00:22:09;;;;;;;6.40;4.30;;;-1.00;99.90;;;;;;5091459;28;20016;-56
2022/01/09 00:24:35;;;;;;;4.53;3.85;;;-1.00;99.90;;;;;;5091994;28;20073;-54
2022/01/09 00:27:01;;;;;;;4.82;4.38;;;-1.10;99.90;;;;;;5091916;28;20058;-56
2022/01/09 00:29:26;;;;;;;5.05;4.20;;;-1.10;99.90;;;;;;5091908;28;20656;-54
2022/01/09 00:31:52;;;;;;;4.40;4.00;;;-1.20;99.90;;;;;;5091838;28;20515;-53
2022/01/09 00:34:17;;;;;;;5.20;4.70;;;-1.20;99.90;;;;;;5073904;28;20028;-54
2022/01/09 00:36:43;;;;;;;5.22;4.38;;;-1.30;99.90;;;;;;5091661;28;20036;-55
2022/01/09 00:39:09;;;;;;;4.55;4.13;;;-1.20;99.90;;;;;;5073764;28;20032;-56
2022/01/09 00:41:34;;;;;;;9.05;4.18;;;-1.20;99.90;;;;;;5091604;28;20115;-56
2022/01/09 00:44:00;;;;;;;4.53;4.13;;;-1.20;99.90;;;;;;5091366;28;20023;-56
2022/01/09 00:46:26;;;;;;;4.28;3.90;;;-1.10;99.90;;;;;;5091524;28;20020;-56
2022/01/09 00:48:51;;;;;;;7.55;4.15;;;-1.00;99.90;;;;;;5091882;28;20028;-55
2022/01/09 00:51:18;;;;;;;4.15;3.75;;;-0.90;99.90;;;;;;5091738;28;20020;-55
2022/01/09 00:53:44;;;;;;;6.22;3.40;;;-0.90;99.90;;;;;;5091468;28;20031;-56
2022/01/09 00:56:09;;;;;;;6.10;4.35;;;-1.00;99.90;;;;;;5091359;28;20126;-55
2022/01/09 00:58:35;;;;;;;5.43;4.30;;;-1.00;99.90;;;;;;5072342;28;20039;-55
2022/01/09 01:01:00;;;;;;;4.35;3.85;;;-1.00;99.90;;;;;;5091581;28;20022;-56
2022/01/09 01:03:26;;;;;;;6.65;4.43;;;-1.10;99.90;;;;;;5091888;28;20375;-57
2022/01/09 01:05:52;;;;;;;4.65;4.13;;;-1.10;99.90;;;;;;5091550;28;20077;-54
2022/01/09 01:08:18;;;;;;;4.78;3.97;;;-1.10;99.90;;;;;;5091788;28;20108;-57
2022/01/09 01:10:44;;;;;;;10.52;4.68;;;-1.10;99.90;;;;;;5091396;28;20106;-54
2022/01/09 01:13:10;;;;;;;4.35;3.95;;;-1.20;99.90;;;;;;5091494;28;20028;-55
2022/01/09 01:15:36;;;;;;;6.63;3.97;;;-1.20;99.90;;;;;;5091275;28;20479;-55
2022/01/09 01:18:03;;;;;;;6.55;4.13;;;-1.30;99.90;;;;;;5091461;28;20021;-54
2022/01/09 01:20:30;;;;;;;6.47;4.28;;;-1.30;99.90;;;;;;5090871;28;20036;-56
2022/01/09 01:22:58;;;;;;;4.75;4.22;;;-1.30;99.90;;;;;;5090992;28;20024;-54
2022/01/09 01:25:24;;;;;;;6.85;4.55;;;-1.30;99.90;;;;;;5091309;28;20122;-56
2022/01/09 01:27:49;;;;;;;12.13;4.90;;;-1.30;99.90;;;;;;5091105;28;20048;-56
2022/01/09 01:30:15;;;;;;;5.15;4.63;;;-1.30;99.90;;;;;;5091383;28;20039;-56
2022/01/09 01:32:42;;;;;;;5.88;4.88;;;-1.40;99.90;;;;;;5090991;28;20468;-55
2022/01/09 01:35:09;;;;;;;4.78;4.32;;;-1.40;99.90;;;;;;5091312;28;20693;-53
2022/01/09 01:37:38;;;;;;;5.47;4.13;;;-1.40;99.90;;;;;;5072947;28;20240;-57
2022/01/09 01:40:05;;;;;;;5.75;4.57;;;-1.30;99.90;;;;;;5072796;28;20036;-57
2022/01/09 01:42:32;;;;;;;5.13;4.63;;;-1.40;99.90;;;;;;5091180;28;20117;-56
2022/01/09 01:44:58;;;;;;;6.38;4.00;;;-1.40;99.90;;;;;;5091101;28;20048;-55
2022/01/09 01:47:24;;;;;;;4.80;4.38;;;-1.40;99.90;;;;;;5091200;28;20109;-56
2022/01/09 01:49:50;;;;;;;6.40;5.80;;;-1.40;99.90;;;;;;5072794;28;20036;-55
2022/01/09 01:52:18;;;;;;;5.28;4.38;;;-1.30;99.90;;;;;;5091286;28;20039;-55
2022/01/09 01:54:44;;;;;;;4.97;4.45;;;-1.30;99.90;;;;;;5071880;28;20477;-54
2022/01/09 01:57:10;;;;;;;6.18;5.47;;;-1.30;99.90;;;;;;5090944;28;20073;-56
2022/01/09 01:59:36;;;;;;;4.50;4.10;;;-1.30;99.90;;;;;;5090835;28;20027;-55
2022/01/09 02:02:02;;;;;;;8.00;5.53;;;-1.30;99.90;;;;;;5090643;28;20722;-57
2022/01/09 02:04:28;;;;;;;7.43;4.97;;;-1.30;99.90;;;;;;5090224;28;20032;-56
2022/01/09 02:06:55;;;;;;;4.95;4.40;;;-1.30;99.90;;;;;;5089837;28;20069;-56
2022/01/09 02:09:20;;;;;;;7.18;4.85;;;-1.30;99.90;;;;;;5090748;28;20031;-53
2022/01/09 02:11:46;;;;;;;9.38;5.65;;;-1.20;99.90;;;;;;5093465;28;20429;-56
2022/01/09 02:14:12;;;;;;;5.05;4.55;;;-1.20;99.90;;;;;;5093693;28;20102;-55
2022/01/09 02:16:42;;;;;;;8.13;5.00;;;-1.20;99.90;;;;;;5093609;28;20032;-54
2022/01/09 02:19:11;;;;;;;5.80;4.88;;;-1.20;99.90;;;;;;5093152;28;20032;-55
2022/01/09 02:21:44;;;;;;;5.53;4.78;;;-1.20;99.90;;;;;;5093583;28;20019;-55
2022/01/09 02:24:11;;;;;;;6.70;5.45;;;-1.20;99.90;;;;;;5093560;28;20099;-57
2022/01/09 02:26:37;;;;;;;6.93;5.00;;;-1.20;99.90;;;;;;5093563;28;20111;-55
2022/01/09 02:29:05;;;;;;;8.73;5.80;;;-1.20;99.90;;;;;;5094236;28;20115;-57
2022/01/09 02:31:31;;;;;;;9.15;5.72;;;-1.20;99.90;;;;;;5093774;28;20024;-56
2022/01/09 02:33:56;;;;;;;8.63;6.10;;;-1.10;99.90;;;;;;5093054;28;20462;-56
2022/01/09 02:36:22;;;;;;;6.03;4.93;;;-1.20;99.90;;;;;;5093370;28;20178;-55
2022/01/09 02:38:48;;;;;;;6.05;5.47;;;-1.20;99.90;;;;;;5093043;28;20028;-55
2022/01/09 02:41:14;;;;;;;6.90;5.43;;;-1.20;99.90;;;;;;5093130;28;20016;-53
2022/01/09 02:43:40;;;;;;;7.78;5.07;;;-1.20;99.90;;;;;;5093122;28;20081;-55
2022/01/09 02:46:15;;;;;;;5.95;5.00;;;-1.20;99.90;;;;;;5093000;28;20107;-54
2022/01/09 02:48:41;;;;;;;8.50;5.07;;;-1.20;99.90;;;;;;5092568;28;20020;-56
2022/01/09 02:51:16;;;;;;;6.18;5.45;;;-1.10;99.90;;;;;;5093033;28;20021;-54
2022/01/09 02:53:46;;;;;;;8.25;6.32;;;-1.20;99.90;;;;;;5093379;28;20141;-56
2022/01/09 02:56:12;;;;;;;6.20;5.43;;;-1.20;99.90;;;;;;5093324;28;20035;-53
2022/01/09 02:58:38;;;;;;;11.23;7.35;;;-1.10;99.90;;;;;;5093408;28;20472;-57
2022/01/09 03:01:06;;;;;;;8.38;6.28;;;-1.10;99.90;;;;;;5093666;28;20028;-54
2022/01/09 03:03:32;;;;;;;9.52;6.95;;;-1.10;99.90;;;;;;5093576;28;20024;-54
2022/01/09 03:05:58;;;;;;;7.85;6.05;;;-1.10;99.90;;;;;;5075431;28;20020;-57
2022/01/09 03:08:24;;;;;;;5.90;5.10;;;-1.10;99.90;;;;;;5092873;28;20363;-55
2022/01/09 03:10:49;;;;;;;8.80;6.78;;;-1.10;99.90;;;;;;5092784;28;20062;-55
2022/01/09 03:13:15;;;;;;;8.27;5.82;;;-1.10;99.90;;;;;;5093539;28;20429;-56
2022/01/09 03:15:41;;;;;;;7.40;6.50;;;-1.10;99.90;;;;;;5093234;28;20077;-55
2022/01/09 03:18:07;;;;;;;7.90;5.97;;;-1.10;99.90;;;;;;5093359;28;20107;-54
2022/01/09 03:20:32;;;;;;;10.43;5.75;;;-1.00;99.90;;;;;;5092859;28;20058;-57
2022/01/09 03:22:58;;;;;;;13.68;6.25;;;-1.00;99.90;;;;;;5092671;28;20340;-57
2022/01/09 03:25:25;;;;;;;9.68;7.07;;;-1.00;99.90;;;;;;5092869;28;20459;-55
2022/01/09 03:27:53;;;;;;;8.18;6.13;;;-1.00;99.90;;;;;;5093040;28;20439;-55
2022/01/09 03:30:20;;;;;;;9.25;6.68;;;-0.90;99.90;;;;;;5093157;28;20028;-56
2022/01/09 03:32:48;;;;;;;9.38;6.95;;;-0.90;99.90;;;;;;5092761;28;20063;-56
2022/01/09 03:35:15;;;;;;;12.40;7.05;;;-0.90;99.90;;;;;;5092837;28;20051;-55
2022/01/09 03:37:43;;;;;;;12.25;7.32;;;-0.90;99.90;;;;;;5092731;28;20055;-57
2022/01/09 03:40:12;;;;;;;7.35;5.43;;;-0.90;99.90;;;;;;5092708;28;20422;-57
2022/01/09 03:42:38;;;;;;;13.45;8.32;;;-0.90;99.90;;;;;;5092707;28;20034;-55
2022/01/09 03:45:05;;;;;;;6.00;5.50;;;-0.90;99.90;;;;;;5092456;28;20019;-57
2022/01/09 03:47:31;;;;;;;7.53;5.68;;;-0.90;99.90;;;;;;5092753;28;20024;-55
2022/01/09 03:49:57;;;;;;;6.45;5.45;;;-0.90;99.90;;;;;;5092838;28;20356;-53
2022/01/09 03:52:27;;;;;;;7.95;5.93;;;-0.90;99.90;;;;;;5092655;28;20039;-56
2022/01/09 03:54:54;;;;;;;8.05;6.00;;;-0.90;99.90;;;;;;5092298;28;20052;-53
2022/01/09 03:57:21;;;;;;;9.52;6.20;;;-0.80;99.90;;;;;;5092698;28;20482;-55
2022/01/09 03:59:47;;;;;;;7.68;5.63;;;-0.80;99.90;;;;;;5092122;28;20653;-56
2022/01/09 04:02:12;;;;;;;6.25;5.65;;;-0.70;99.90;;;;;;5092546;28;20072;-53
2022/01/09 04:04:38;;;;;;;9.35;7.30;;;-0.50;99.90;;;;;;5074208;28;20024;-56
2022/01/09 04:07:04;;;;;;;8.35;6.10;;;-0.50;99.90;;;;;;5092396;28;20091;-57
2022/01/09 04:09:40;;;;;;;11.10;7.50;;;-0.60;99.90;;;;;;5092195;28;20504;-54
2022/01/09 04:12:15;;;;;;;7.15;6.45;;;-0.60;99.90;;;;;;5092382;28;20028;-55
2022/01/09 04:14:46;;;;;;;7.20;6.07;;;-0.60;99.90;;;;;;5091897;28;20033;-56
2022/01/09 04:17:20;;;;;;;7.40;6.15;;;-0.60;99.90;;;;;;5092332;28;20016;-57
2022/01/09 04:19:46;;;;;;;7.32;6.55;;;-0.50;99.90;;;;;;5091894;28;20143;-54
2022/01/09 04:22:12;;;;;;;8.55;6.70;;;-0.60;99.90;;;;;;5092192;28;20012;-53
2022/01/09 04:24:37;;;;;;;10.82;7.18;;;-0.50;99.90;;;;;;5092014;28;20146;-57
2022/01/09 04:27:03;;;;;;;8.52;7.53;;;-0.50;99.90;;;;;;5092065;28;20039;-54
2022/01/09 04:29:29;;;;;;;8.80;7.35;;;-0.50;99.90;;;;;;5091817;28;20036;-54
2022/01/09 04:31:55;;;;;;;10.00;6.95;;;-0.60;99.90;;;;;;5092010;28;20035;-56
2022/01/09 04:34:20;;;;;;;9.18;8.13;;;-0.70;99.90;;;;;;5091836;28;20035;-57
2022/01/09 04:36:46;;;;;;;12.65;7.50;;;-0.70;99.90;;;;;;5091599;28;20119;-52
2022/01/09 04:39:11;;;;;;;9.30;7.15;;;-0.70;99.90;;;;;;5091684;28;20161;-53
2022/01/09 04:41:37;;;;;;;13.05;9.68;;;-0.70;99.90;;;;;;5091628;28;20028;-55
2022/01/09 04:44:03;;;;;;;8.75;7.30;;;-0.60;99.90;;;;;;5091663;28;20169;-56
2022/01/09 04:46:39;;;;;;;9.93;8.63;;;-0.50;99.90;;;;;;5091775;28;20028;-56
2022/01/09 04:49:04;;;;;;;10.27;6.75;;;-0.60;99.90;;;;;;5091730;28;20086;-56
2022/01/09 04:51:30;;;;;;;8.55;7.22;;;-0.70;99.90;;;;;;5091724;28;20466;-57
2022/01/09 04:53:56;;;;;;;11.93;8.35;;;-0.80;99.90;;;;;;5091635;28;20469;-55
2022/01/09 04:56:21;;;;;;;8.32;7.35;;;-0.80;99.90;;;;;;5091130;28;20052;-57
2022/01/09 04:58:47;;;;;;;11.38;8.07;;;-0.80;99.90;;;;;;5090797;28;20027;-56
2022/01/09 05:01:13;;;;;;;9.43;7.63;;;-0.80;99.90;;;;;;5091833;28;20016;-55
2022/01/09 05:03:39;;;;;;;10.07;8.30;;;-0.80;99.90;;;;;;5091334;28;20040;-56
2022/01/09 05:06:05;;;;;;;8.95;7.30;;;-0.80;99.90;;;;;;5091497;28;20525;-56
2022/01/09 05:08:31;;;;;;;8.52;6.53;;;-0.80;99.90;;;;;;5091497;28;20025;-56
2022/01/09 05:10:56;;;;;;;10.60;7.88;;;-0.80;99.90;;;;;;5091631;28;20028;-56
2022/01/09 05:13:22;;;;;;;12.40;7.55;;;-0.80;99.90;;;;;;5091208;28;20036;-56
2022/01/09 05:15:48;;;;;;;9.68;7.60;;;-0.90;99.90;;;;;;5091398;28;20028;-55
2022/01/09 05:18:14;;;;;;;14.25;10.00;;;-0.80;99.90;;;;;;5091638;28;20028;-55
2022/01/09 05:20:43;;;;;;;12.50;8.10;;;-0.90;99.90;;;;;;5091195;28;20034;-56
2022/01/09 05:23:10;;;;;;;8.77;7.88;;;-0.90;99.90;;;;;;5091478;28;20103;-56
2022/01/09 05:25:36;;;;;;;9.68;7.38;;;-0.90;99.90;;;;;;5073208;28;20414;-55
2022/01/09 05:28:01;;;;;;;9.40;7.70;;;-0.90;99.90;;;;;;5091100;28;20046;-56
2022/01/09 05:30:27;;;;;;;8.85;6.63;;;-0.90;99.90;;;;;;5073275;28;20024;-56
2022/01/09 05:32:52;;;;;;;8.75;6.60;;;-0.80;99.90;;;;;;5091283;28;20032;-52
2022/01/09 05:35:18;;;;;;;14.20;8.50;;;-0.80;99.90;;;;;;5091389;28;20028;-56
2022/01/09 05:37:44;;;;;;;8.43;7.30;;;-0.90;99.90;;;;;;5091211;28;20032;-56
2022/01/09 05:40:10;;;;;;;7.10;6.40;;;-0.90;99.90;;;;;;5091236;28;20035;-56
2022/01/09 05:42:36;;;;;;;8.93;7.28;;;-0.90;99.90;;;;;;5090920;28;20025;-57
2022/01/09 05:45:03;;;;;;;8.63;7.20;;;-0.90;99.90;;;;;;5092574;28;20024;-56
2022/01/09 05:47:29;;;;;;;8.75;7.85;;;-0.90;99.90;;;;;;5094975;28;20030;-54
2022/01/09 05:49:54;;;;;;;7.88;7.07;;;-0.80;99.90;;;;;;5095035;28;20374;-56
2022/01/09 05:52:20;;;;;;;9.05;7.30;;;-0.90;99.90;;;;;;5095060;28;20039;-56
2022/01/09 05:54:47;;;;;;;10.93;8.15;;;-0.90;99.90;;;;;;5062911;28;20060;-54
2022/01/09 05:57:13;;;;;;;8.63;7.30;;;-0.90;99.90;;;;;;5074692;28;20241;-55
2022/01/09 05:59:38;;;;;;;9.20;8.27;;;-0.90;99.90;;;;;;5074314;28;20112;-54
2022/01/09 06:02:04;;;;;;;13.05;9.88;;;-0.90;99.90;;;;;;5074541;28;20052;-55
2022/01/09 06:04:30;;;;;;;11.27;9.35;;;-0.90;99.90;;;;;;5074532;28;20123;-55
2022/01/09 06:06:56;;;;;;;10.65;8.57;;;-0.90;99.90;;;;;;5056489;28;20448;-57
2022/01/09 06:09:22;;;;;;;9.65;8.63;;;-0.90;99.90;;;;;;5087384;28;20040;-55
2022/01/09 06:11:48;;;;;;;10.05;8.60;;;-0.90;99.90;;;;;;5094540;28;20119;-54
2022/01/09 06:14:13;;;;;;;12.00;8.77;;;-0.90;99.90;;;;;;5094729;28;20036;-55
2022/01/09 06:16:39;;;;;;;9.70;7.53;;;-0.80;99.90;;;;;;5094410;28;20542;-55
2022/01/09 06:19:04;;;;;;;10.18;8.55;;;-0.80;99.90;;;;;;5094548;28;20399;-56
2022/01/09 06:21:30;;;;;;;10.35;8.07;;;-0.70;99.90;;;;;;5094361;28;20027;-54
2022/01/09 06:23:56;;;;;;;10.27;8.70;;;-0.70;99.90;;;;;;5094168;28;20051;-56
2022/01/09 06:26:22;;;;;;;14.93;8.77;;;-0.60;99.90;;;;;;5094534;28;20208;-54
2022/01/09 06:28:47;;;;;;;10.68;8.35;;;-0.60;99.90;;;;;;5094175;28;20587;-54
2022/01/09 06:31:13;;;;;;;10.90;7.82;;;-0.50;99.90;;;;;;5094297;28;20063;-53
2022/01/09 06:33:39;;;;;;;11.00;7.70;;;-0.60;99.90;;;;;;5093983;28;20055;-52
2022/01/09 06:36:05;;;;;;;12.65;8.73;;;-0.60;99.90;;;;;;5075952;28;20054;-54
2022/01/09 06:38:30;;;;;;;11.13;7.75;;;-0.50;99.90;;;;;;5093655;28;20025;-54
2022/01/09 06:40:56;;;;;;;9.43;8.40;;;-0.60;99.90;;;;;;5094110;28;20078;-53
2022/01/09 06:43:21;;;;;;;8.85;6.95;;;-0.50;99.90;;;;;;5093503;28;20097;-53
2022/01/09 06:45:47;;;;;;;10.75;7.95;;;-0.40;99.90;;;;;;5093440;28;20078;-57
2022/01/09 06:48:13;;;;;;;13.70;10.45;;;-0.40;99.90;;;;;;5093964;28;20077;-55
2022/01/09 06:50:38;;;;;;;24.20;11.00;;;-0.40;99.90;;;;;;5093719;28;20032;-56
2022/01/09 06:53:04;;;;;;;11.10;8.85;;;-0.50;99.90;;;;;;5093707;28;20024;-56
2022/01/09 06:55:30;;;;;;;26.15;21.77;;;-0.50;99.90;;;;;;5092969;28;20040;-54
2022/01/09 06:57:55;;;;;;;12.80;11.50;;;-0.50;99.90;;;;;;5093097;28;20467;-56
2022/01/09 07:00:22;;;;;;;12.30;8.60;;;-0.50;99.90;;;;;;5093800;28;20074;-54
2022/01/09 07:02:48;;;;;;;9.85;8.05;;;-0.40;99.90;;;;;;5093530;28;20048;-54
2022/01/09 07:05:14;;;;;;;14.75;10.88;;;-0.50;99.90;;;;;;5093815;28;20059;-56
2022/01/09 07:07:40;;;;;;;9.10;8.20;;;-0.60;99.90;;;;;;5074874;28;20024;-55
2022/01/09 07:10:07;;;;;;;11.30;7.85;;;-0.60;99.90;;;;;;5093267;28;20085;-56
2022/01/09 07:12:34;;;;;;;13.98;12.32;;;-0.50;99.90;;;;;;5093109;28;20058;-56
2022/01/09 07:15:00;;;;;;;14.48;8.63;;;-0.50;99.90;;;;;;5093499;28;20085;-55
2022/01/09 07:17:26;;;;;;;15.45;10.10;;;-0.50;99.90;;;;;;5092882;28;20470;-55
2022/01/09 07:19:51;;;;;;;9.07;8.18;;;-0.50;99.90;;;;;;5075086;28;20024;-55
2022/01/09 07:22:17;;;;;;;14.65;12.18;;;-0.40;99.90;;;;;;5093083;28;20099;-52
2022/01/09 07:24:43;;;;;;;15.63;12.18;;;-0.40;99.90;;;;;;5092154;28;20390;-56
2022/01/09 07:27:08;;;;;;;13.02;9.18;;;-0.40;99.90;;;;;;5092499;28;20031;-57
2022/01/09 07:29:34;;;;;;;15.55;9.68;;;-0.40;99.90;;;;;;5092213;28;20027;-57
2022/01/09 07:32:01;;;;;;;14.60;9.30;;;-0.40;99.90;;;;;;5092071;28;20027;-53
2022/01/09 07:34:26;;;;;;;10.13;8.50;;;-0.40;99.90;;;;;;5092202;28;20024;-54
2022/01/09 07:36:52;;;;;;;11.13;9.27;;;-0.40;99.90;;;;;;5092017;28;20608;-56
2022/01/09 07:39:18;;;;;;;83.40;35.20;;;-0.40;99.90;;;;;;5092097;28;20027;-55
2022/01/09 07:41:44;;;;;;;17.52;9.23;;;-0.40;99.90;;;;;;5091279;28;20031;-55
2022/01/09 07:44:10;;;;;;;14.38;8.45;;;-0.40;99.90;;;;;;5078739;28;20032;-53
2022/01/09 07:46:35;;;;;;;177.07;77.70;;;-0.40;99.90;;;;;;5071290;28;20135;-57
2022/01/09 07:49:02;;;;;;;284.58;129.77;;;-0.30;99.90;;;;;;5071128;28;20021;-52
2022/01/09 07:51:27;;;;;;;111.10;55.33;;;-0.40;99.90;;;;;;5070970;28;20036;-57
2022/01/09 07:53:53;;;;;;;32.33;17.75;;;-0.40;99.90;;;;;;5070987;28;20020;-56
2022/01/09 07:56:18;;;;;;;17.95;12.48;;;-0.30;99.90;;;;;;5070803;28;20040;-55
2022/01/09 07:58:44;;;;;;;16.02;10.60;;;-0.30;99.90;;;;;;5090413;28;20063;-52
2022/01/09 08:01:10;;;;;;;19.20;12.23;;;-0.20;99.90;;;;;;5090839;28;20024;-53
2022/01/09 08:03:36;;;;;;;26.85;14.55;;;-0.10;99.90;;;;;;5091004;28;20050;-54
2022/01/09 08:06:02;;;;;;;107.47;38.67;;;-0.10;99.90;;;;;;5091287;28;20021;-56
2022/01/09 08:08:28;;;;;;;14.38;9.18;;;-0.10;99.90;;;;;;5090549;28;20027;-55
2022/01/09 08:10:53;;;;;;;33.35;15.63;;;0.00;99.90;;;;;;5089962;28;20032;-56
2022/01/09 08:13:19;;;;;;;17.40;12.27;;;-0.10;99.90;;;;;;5090908;28;20385;-54
2022/01/09 08:15:46;;;;;;;18.58;12.00;;;-0.20;99.90;;;;;;5090612;28;20028;-57
2022/01/09 08:18:11;;;;;;;20.98;12.57;;;-0.20;99.90;;;;;;5090948;28;20447;-55
2022/01/09 08:20:37;;;;;;;18.20;12.80;;;-0.10;99.90;;;;;;5090604;28;20110;-55
2022/01/09 08:23:03;;;;;;;15.98;11.30;;;0.00;99.90;;;;;;5090787;28;20024;-56
2022/01/09 08:25:29;;;;;;;17.20;12.77;;;0.10;99.90;;;;;;5090162;28;20039;-55
2022/01/09 08:27:55;;;;;;;16.33;10.73;;;0.10;99.90;;;;;;5090632;28;20020;-52
2022/01/09 08:30:21;;;;;;;17.38;12.75;;;0.00;99.90;;;;;;5090502;28;20417;-56
2022/01/09 08:32:48;;;;;;;11.05;9.23;;;0.10;99.90;;;;;;5090471;28;20020;-55
2022/01/09 08:35:14;;;;;;;17.75;9.90;;;0.10;99.90;;;;;;5090712;28;20059;-56
2022/01/09 08:37:44;;;;;;;20.25;11.43;;;0.20;99.90;;;;;;5090488;28;20043;-57
2022/01/09 08:40:12;;;;;;;15.48;10.68;;;0.20;99.90;;;;;;5089669;28;20023;-56
2022/01/09 08:42:40;;;;;;;17.80;11.60;;;0.30;99.90;;;;;;5090343;28;20028;-57
2022/01/09 08:45:06;;;;;;;18.33;11.68;;;0.50;99.90;;;;;;5072479;28;20494;-55
2022/01/09 08:47:35;;;;;;;21.85;14.27;;;0.60;99.90;;;;;;5090268;28;20016;-57
2022/01/09 08:50:02;;;;;;;25.33;16.08;;;0.60;99.90;;;;;;5090488;28;20076;-55
2022/01/09 08:52:27;;;;;;;40.65;25.08;;;0.70;99.90;;;;;;5090183;28;20530;-56
2022/01/09 08:54:53;;;;;;;30.80;16.45;;;0.80;99.90;;;;;;5089677;28;20166;-56
2022/01/09 08:57:19;;;;;;;18.45;11.40;;;0.90;99.90;;;;;;5072908;28;20027;-54
2022/01/09 08:59:44;;;;;;;10.07;7.20;;;1.00;99.90;;;;;;5091446;28;20035;-54
2022/01/09 09:02:10;;;;;;;10.35;7.70;;;1.10;99.90;;;;;;5091807;28;20020;-56
2022/01/09 09:04:38;;;;;;;9.43;7.55;;;1.20;99.90;;;;;;5091578;28;20024;-56
2022/01/09 09:07:04;;;;;;;9.80;7.22;;;1.20;99.90;;;;;;5091567;28;20103;-55
2022/01/09 09:09:29;;;;;;;8.65;6.65;;;1.20;99.90;;;;;;5073198;28;20151;-55
2022/01/09 09:11:55;;;;;;;9.90;6.82;;;1.30;99.90;;;;;;5091533;28;20031;-55
2022/01/09 09:14:22;;;;;;;8.02;6.82;;;1.30;99.90;;;;;;5091126;28;20551;-56
2022/01/09 09:16:47;;;;;;;8.30;6.10;;;1.30;99.90;;;;;;5091266;28;20038;-56
2022/01/09 09:19:13;;;;;;;8.48;6.18;;;1.40;99.90;;;;;;5091751;28;20507;-55
2022/01/09 09:21:39;;;;;;;10.15;5.80;;;1.40;99.90;;;;;;5095417;28;20066;-58
2022/01/09 09:24:05;;;;;;;10.68;6.55;;;1.50;99.90;;;;;;5095314;28;20031;-55
2022/01/09 09:26:30;;;;;;;9.38;6.97;;;1.50;99.90;;;;;;5095282;28;20103;-58
2022/01/09 09:28:56;;;;;;;6.95;5.35;;;1.60;99.90;;;;;;5095228;28;20486;-57
2022/01/09 09:31:21;;;;;;;11.25;7.25;;;1.60;99.90;;;;;;5095170;28;20056;-54
2022/01/09 09:33:47;;;;;;;8.35;6.07;;;1.70;99.90;;;;;;5095343;28;20067;-56
2022/01/09 09:36:13;;;;;;;12.05;7.35;;;1.80;99.90;;;;;;5095229;28;20671;-55
2022/01/09 09:38:39;;;;;;;5.95;5.15;;;1.80;99.90;;;;;;5095168;28;20609;-52
2022/01/09 09:41:05;;;;;;;5.32;4.82;;;1.90;99.90;;;;;;5094758;28;20039;-57
2022/01/09 09:43:31;;;;;;;32.58;13.60;;;2.00;99.90;;;;;;5094179;28;20024;-56
2022/01/09 09:45:56;;;;;;;12.63;5.38;;;2.10;99.90;;;;;;5076856;28;20115;-56
2022/01/09 09:48:22;;;;;;;2.63;2.47;;;2.30;99.90;;;;;;5094916;28;20024;-55
2022/01/09 09:50:49;;;;;;;16.70;8.60;;;2.30;99.90;;;;;;5094736;28;20046;-53
2022/01/09 09:53:15;;;;;;;30.65;11.07;;;2.40;99.90;;;;;;5094043;28;20047;-56
2022/01/09 09:55:41;;;;;;;22.48;10.80;;;2.40;99.90;;;;;;5073171;28;20072;-56
2022/01/09 09:58:07;;;;;;;40.97;18.98;;;2.40;99.90;;;;;;5079831;28;20069;-55
2022/01/09 10:00:33;;;;;;;10.13;5.00;;;2.40;99.90;;;;;;5093358;28;20020;-55
2022/01/09 10:03:01;;;;;;;10.13;7.30;;;2.40;99.90;;;;;;5093470;28;20020;-57
2022/01/09 10:05:33;;;;;;;2.10;2.00;;;2.40;99.90;;;;;;5093413;28;20042;-56
2022/01/09 10:08:38;;;;;;;3.60;3.30;;;2.40;99.90;;;;;;5093300;28;20479;-55
2022/01/09 10:11:15;;;;;;;6.35;2.92;;;2.40;99.90;;;;;;5062891;28;20064;-56
2022/01/09 10:13:41;;;;;;;2.40;2.17;;;2.50;99.90;;;;;;5092894;28;20065;-55
2022/01/09 10:16:09;;;;;;;3.17;2.83;;;2.50;99.90;;;;;;5093960;28;20064;-54
2022/01/09 10:18:45;;;;;;;3.30;2.60;;;2.50;99.90;;;;;;5093733;28;20378;-57
2022/01/09 10:21:19;;;;;;;2.53;2.33;;;2.50;99.90;;;;;;5093764;28;20057;-55
2022/01/09 10:24:08;;;;;;;6.03;5.43;;;2.60;99.90;;;;;;5092427;28;20035;-56
2022/01/09 10:26:36;;;;;;;13.00;9.43;;;2.60;99.90;;;;;;5092457;28;20020;-56
2022/01/09 10:29:04;;;;;;;4.55;3.80;;;2.60;99.90;;;;;;5072719;28;20127;-56
2022/01/09 10:31:30;;;;;;;2.95;2.67;;;2.60;99.90;;;;;;5091579;28;20034;-53
2022/01/09 10:34:06;;;;;;;2.70;2.30;;;2.60;99.90;;;;;;5091268;28;20039;-57
2022/01/09 10:36:35;;;;;;;2.33;2.22;;;2.60;99.90;;;;;;5092807;28;20384;-57
2022/01/09 10:39:12;;;;;;;5.63;3.38;;;2.60;99.90;;;;;;5091044;28;20081;-56
2022/01/09 10:41:45;;;;;;;5.57;4.25;;;2.60;99.90;;;;;;5091507;28;20467;-57
2022/01/09 10:44:16;;;;;;;3.40;3.10;;;2.70;99.90;;;;;;5091746;28;20028;-57
2022/01/09 10:47:12;;;;;;;2.53;2.33;;;2.80;99.90;;;;;;5092282;28;20510;-55
2022/01/09 10:49:41;;;;;;;7.43;3.42;;;2.70;99.90;;;;;;5092627;28;20024;-57
2022/01/09 10:52:25;;;;;;;2.63;2.38;;;2.80;99.90;;;;;;5092588;28;20491;-54
2022/01/09 10:54:53;;;;;;;2.67;2.55;;;2.80;99.90;;;;;;5092106;28;20307;-57
2022/01/09 10:57:28;;;;;;;5.30;2.88;;;2.90;99.90;;;;;;5092453;28;20031;-56
2022/01/09 11:00:06;;;;;;;2.83;2.60;;;2.90;99.90;;;;;;5091876;28;20032;-55
2022/01/09 11:02:32;;;;;;;9.52;8.00;;;2.80;99.90;;;;;;5073941;28;20028;-56
2022/01/09 11:04:58;;;;;;;4.03;3.65;;;2.70;99.90;;;;;;5092099;28;20020;-57
2022/01/09 11:07:24;;;;;;;3.08;2.88;;;2.80;99.90;;;;;;5092194;28;20016;-58
2022/01/09 11:09:51;;;;;;;2.80;2.60;;;2.80;99.90;;;;;;5092147;28;20032;-57
2022/01/09 11:12:20;;;;;;;2.10;2.00;;;2.70;99.90;;;;;;5092220;28;20027;-57
2022/01/09 11:14:48;;;;;;;2.38;2.28;;;2.80;99.90;;;;;;5091951;28;20031;-55
2022/01/09 11:17:16;;;;;;;2.83;2.50;;;2.80;99.90;;;;;;5092147;28;20106;-54
2022/01/09 11:19:43;;;;;;;2.00;1.90;;;2.80;99.90;;;;;;5091922;28;20036;-55
2022/01/09 11:22:10;;;;;;;2.10;2.00;;;2.90;99.90;;;;;;5092040;28;20020;-57
2022/01/09 11:25:08;;;;;;;2.50;2.30;;;2.90;99.90;;;;;;5091753;28;20064;-53
2022/01/09 11:27:45;;;;;;;2.72;2.53;;;2.90;99.90;;;;;;5091661;28;20016;-56
2022/01/09 11:30:48;;;;;;;2.10;2.00;;;3.00;99.90;;;;;;5091982;28;20383;-56
2022/01/09 11:33:44;;;;;;;2.50;2.33;;;3.00;99.90;;;;;;5023350;28;20036;-55
2022/01/09 11:36:26;;;;;;;2.70;2.50;;;3.00;99.90;;;;;;5091759;28;20532;-56
2022/01/09 11:39:31;;;;;;;2.95;2.53;;;3.10;99.90;;;;;;5091546;28;20534;-57
2022/01/09 11:42:09;;;;;;;2.85;2.65;;;3.10;99.90;;;;;;5090822;28;20400;-57
2022/01/09 11:44:51;;;;;;;2.30;2.10;;;3.00;99.90;;;;;;5091333;28;20020;-55
2022/01/09 11:47:17;;;;;;;2.63;2.42;;;3.20;99.90;;;;;;5091424;28;20434;-56
2022/01/09 11:49:52;;;;;;;2.40;2.30;;;3.10;99.90;;;;;;5091193;28;20024;-55
2022/01/09 11:52:18;;;;;;;2.47;2.28;;;3.10;99.90;;;;;;5091630;28;20024;-56
2022/01/09 11:54:51;;;;;;;9.93;3.92;;;3.10;99.90;;;;;;5090623;28;20051;-57
2022/01/09 11:57:40;;;;;;;11.43;3.03;;;3.10;99.90;;;;;;5091462;28;20016;-56
2022/01/09 12:00:08;;;;;;;5.15;2.53;;;3.10;99.90;;;;;;5091121;28;20434;-57
2022/01/09 12:02:37;;;;;;;13.02;6.85;;;3.20;99.90;;;;;;5091058;28;20081;-56
2022/01/09 12:05:09;;;;;;;2.55;2.33;;;3.10;99.90;;;;;;5091240;28;20157;-55
2022/01/09 12:07:35;;;;;;;3.38;3.08;;;3.10;99.90;;;;;;5091026;28;20028;-56
2022/01/09 12:10:28;;;;;;;2.42;2.17;;;3.10;99.90;;;;;;5072880;28;20012;-57
2022/01/09 12:12:54;;;;;;;3.57;3.27;;;3.00;99.90;;;;;;5080894;28;20040;-56
2022/01/09 12:15:40;;;;;;;3.33;2.47;;;3.00;99.90;;;;;;5091145;28;20028;-55
2022/01/09 12:18:08;;;;;;;3.20;2.63;;;3.10;99.90;;;;;;5072902;28;20020;-55
2022/01/09 12:20:41;;;;;;;4.88;2.80;;;3.10;99.90;;;;;;5090962;28;20023;-55
2022/01/09 12:23:18;;;;;;;2.65;2.45;;;3.10;99.90;;;;;;5072807;28;20016;-56
2022/01/09 12:25:45;;;;;;;3.00;2.72;;;3.10;99.90;;;;;;5090706;28;20036;-57
2022/01/09 12:28:34;;;;;;;2.88;2.55;;;3.20;99.90;;;;;;5072777;28;20016;-57
2022/01/09 12:31:01;;;;;;;2.42;2.22;;;3.20;99.90;;;;;;5090334;28;20082;-54
2022/01/09 12:33:31;;;;;;;2.50;2.30;;;3.30;99.90;;;;;;5090605;28;20367;-57
2022/01/09 12:36:11;;;;;;;1.95;1.85;;;3.30;99.90;;;;;;5090711;28;20418;-54
2022/01/09 12:38:37;;;;;;;2.17;1.90;;;3.40;99.90;;;;;;5090659;28;20364;-56
2022/01/09 12:41:07;;;;;;;2.08;1.90;;;3.50;99.90;;;;;;5090593;28;20090;-56
2022/01/09 12:43:35;;;;;;;2.33;2.17;;;3.60;99.90;;;;;;5090457;28;20051;-57
2022/01/09 12:46:21;;;;;;;3.08;2.30;;;3.60;99.90;;;;;;5090286;28;20058;-55
2022/01/09 12:48:58;;;;;;;2.63;2.40;;;3.60;99.90;;;;;;5090487;28;20028;-56